sensor_id;sensor_type;location;lat;lon;timestamp;temperature;humidity
61398;DHT22;47267;48.130;-2.040;2023-05-16T00:00:14;18.40;59.60
61398;DHT22;47267;48.130;-2.040;2023-05-16T00:02:40;18.40;59.60
61398;DHT22;47267;48.130;-2.040;2023-05-16T00:05:06;18.40;59.70
61398;DHT22;47267;48.130;-2.040;2023-05-16T00:07:33;18.30;59.60
61398;DHT22;47267;48.130;-2.040;2023-05-16T00:09:59;18.30;59.60
61398;DHT22;47267;48.130;-2.040;2023-05-16T00:12:25;18.30;59.60
61398;DHT22;47267;48.130;-2.040;2023-05-16T00:14:51;18.30;59.60
61398;DHT22;47267;48.130;-2.040;2023-05-16T00:17:18;18.30;59.60
61398;DHT22;47267;48.130;-2.040;2023-05-16T00:19:45;18.30;59.50
61398;DHT22;47267;48.130;-2.040;2023-05-16T00:22:13;18.30;59.60
61398;DHT22;47267;48.130;-2.040;2023-05-16T00:24:40;18.20;59.50
61398;DHT22;47267;48.130;-2.040;2023-05-16T00:27:06;18.20;59.50
61398;DHT22;47267;48.130;-2.040;2023-05-16T00:29:34;18.20;59.50
61398;DHT22;47267;48.130;-2.040;2023-05-16T00:32:00;18.20;59.50
61398;DHT22;47267;48.130;-2.040;2023-05-16T00:34:25;18.20;59.50
61398;DHT22;47267;48.130;-2.040;2023-05-16T00:36:52;18.20;59.50
61398;DHT22;47267;48.130;-2.040;2023-05-16T00:39:18;18.20;59.50
61398;DHT22;47267;48.130;-2.040;2023-05-16T00:41:44;18.10;59.50
61398;DHT22;47267;48.130;-2.040;2023-05-16T00:44:10;18.10;59.40
61398;DHT22;47267;48.130;-2.040;2023-05-16T00:46:36;18.10;59.40
61398;DHT22;47267;48.130;-2.040;2023-05-16T00:49:02;18.20;59.50
61398;DHT22;47267;48.130;-2.040;2023-05-16T00:51:28;18.10;59.40
61398;DHT22;47267;48.130;-2.040;2023-05-16T00:53:54;18.10;59.50
61398;DHT22;47267;48.130;-2.040;2023-05-16T00:56:21;18.10;59.40
61398;DHT22;47267;48.130;-2.040;2023-05-16T00:58:48;18.10;59.50
61398;DHT22;47267;48.130;-2.040;2023-05-16T01:01:15;18.10;59.40
61398;DHT22;47267;48.130;-2.040;2023-05-16T01:03:41;18.10;59.40
61398;DHT22;47267;48.130;-2.040;2023-05-16T01:06:10;18.00;59.40
61398;DHT22;47267;48.130;-2.040;2023-05-16T01:08:36;18.00;59.40
61398;DHT22;47267;48.130;-2.040;2023-05-16T01:11:12;18.00;59.40
61398;DHT22;47267;48.130;-2.040;2023-05-16T01:13:59;18.00;59.40
61398;DHT22;47267;48.130;-2.040;2023-05-16T01:17:07;18.00;59.40
61398;DHT22;47267;48.130;-2.040;2023-05-16T01:28:04;17.90;59.30
61398;DHT22;47267;48.130;-2.040;2023-05-16T01:30:37;17.90;59.30
61398;DHT22;47267;48.130;-2.040;2023-05-16T01:33:03;17.90;59.30
61398;DHT22;47267;48.130;-2.040;2023-05-16T01:35:29;17.90;59.30
61398;DHT22;47267;48.130;-2.040;2023-05-16T01:38:25;17.90;59.30
61398;DHT22;47267;48.130;-2.040;2023-05-16T01:41:07;17.90;59.30
61398;DHT22;47267;48.130;-2.040;2023-05-16T01:43:42;17.80;59.20
61398;DHT22;47267;48.130;-2.040;2023-05-16T01:46:13;17.90;59.20
61398;DHT22;47267;48.130;-2.040;2023-05-16T01:51:23;17.80;59.20
61398;DHT22;47267;48.130;-2.040;2023-05-16T01:53:56;17.80;59.20
61398;DHT22;47267;48.130;-2.040;2023-05-16T01:56:24;17.80;59.10
61398;DHT22;47267;48.130;-2.040;2023-05-16T01:58:52;17.80;59.10
61398;DHT22;47267;48.130;-2.040;2023-05-16T02:01:18;17.80;59.10
61398;DHT22;47267;48.130;-2.040;2023-05-16T02:03:44;17.70;59.10
61398;DHT22;47267;48.130;-2.040;2023-05-16T02:06:09;17.70;59.10
61398;DHT22;47267;48.130;-2.040;2023-05-16T02:08:35;17.70;59.10
61398;DHT22;47267;48.130;-2.040;2023-05-16T02:11:01;17.70;59.10
61398;DHT22;47267;48.130;-2.040;2023-05-16T02:13:26;17.70;59.10
61398;DHT22;47267;48.130;-2.040;2023-05-16T02:15:52;17.70;59.10
61398;DHT22;47267;48.130;-2.040;2023-05-16T02:18:18;17.70;59.00
61398;DHT22;47267;48.130;-2.040;2023-05-16T02:20:43;17.70;59.00
61398;DHT22;47267;48.130;-2.040;2023-05-16T02:23:09;17.70;59.00
61398;DHT22;47267;48.130;-2.040;2023-05-16T02:25:35;17.70;59.00
61398;DHT22;47267;48.130;-2.040;2023-05-16T02:28:01;17.60;59.00
61398;DHT22;47267;48.130;-2.040;2023-05-16T02:30:26;17.60;58.90
61398;DHT22;47267;48.130;-2.040;2023-05-16T02:32:52;17.60;58.90
61398;DHT22;47267;48.130;-2.040;2023-05-16T02:35:18;17.60;58.90
61398;DHT22;47267;48.130;-2.040;2023-05-16T02:37:44;17.60;58.80
61398;DHT22;47267;48.130;-2.040;2023-05-16T02:40:10;17.60;58.80
61398;DHT22;47267;48.130;-2.040;2023-05-16T02:42:35;17.50;58.70
61398;DHT22;47267;48.130;-2.040;2023-05-16T02:45:01;17.50;58.70
61398;DHT22;47267;48.130;-2.040;2023-05-16T02:47:27;17.50;58.70
61398;DHT22;47267;48.130;-2.040;2023-05-16T02:49:53;17.50;58.70
61398;DHT22;47267;48.130;-2.040;2023-05-16T02:52:19;17.50;58.70
61398;DHT22;47267;48.130;-2.040;2023-05-16T02:54:45;17.50;58.70
61398;DHT22;47267;48.130;-2.040;2023-05-16T02:57:11;17.50;58.70
61398;DHT22;47267;48.130;-2.040;2023-05-16T02:59:37;17.50;58.70
61398;DHT22;47267;48.130;-2.040;2023-05-16T03:02:03;17.50;58.70
61398;DHT22;47267;48.130;-2.040;2023-05-16T03:04:29;17.40;58.60
61398;DHT22;47267;48.130;-2.040;2023-05-16T03:06:54;17.40;58.50
61398;DHT22;47267;48.130;-2.040;2023-05-16T03:09:20;17.40;58.50
61398;DHT22;47267;48.130;-2.040;2023-05-16T03:11:46;17.40;58.60
61398;DHT22;47267;48.130;-2.040;2023-05-16T03:14:12;17.40;58.50
61398;DHT22;47267;48.130;-2.040;2023-05-16T03:16:38;17.40;58.50
61398;DHT22;47267;48.130;-2.040;2023-05-16T03:19:06;17.30;58.40
61398;DHT22;47267;48.130;-2.040;2023-05-16T03:21:31;17.30;58.40
61398;DHT22;47267;48.130;-2.040;2023-05-16T03:23:57;17.30;58.40
61398;DHT22;47267;48.130;-2.040;2023-05-16T03:26:24;17.30;58.40
61398;DHT22;47267;48.130;-2.040;2023-05-16T03:28:50;17.30;58.30
61398;DHT22;47267;48.130;-2.040;2023-05-16T03:31:16;17.30;58.40
61398;DHT22;47267;48.130;-2.040;2023-05-16T03:33:42;17.30;58.40
61398;DHT22;47267;48.130;-2.040;2023-05-16T03:36:08;17.30;58.30
61398;DHT22;47267;48.130;-2.040;2023-05-16T03:38:34;17.30;58.40
61398;DHT22;47267;48.130;-2.040;2023-05-16T03:41:00;17.20;58.30
61398;DHT22;47267;48.130;-2.040;2023-05-16T03:43:26;17.20;58.30
61398;DHT22;47267;48.130;-2.040;2023-05-16T03:45:51;17.20;58.30
61398;DHT22;47267;48.130;-2.040;2023-05-16T03:48:17;17.20;58.30
61398;DHT22;47267;48.130;-2.040;2023-05-16T03:50:43;17.20;58.90
61398;DHT22;47267;48.130;-2.040;2023-05-16T03:53:09;17.20;58.30
61398;DHT22;47267;48.130;-2.040;2023-05-16T03:55:35;17.20;58.30
61398;DHT22;47267;48.130;-2.040;2023-05-16T03:58:00;17.10;58.20
61398;DHT22;47267;48.130;-2.040;2023-05-16T04:00:26;17.10;58.20
61398;DHT22;47267;48.130;-2.040;2023-05-16T04:02:52;17.10;58.20
61398;DHT22;47267;48.130;-2.040;2023-05-16T04:05:17;17.10;58.30
61398;DHT22;47267;48.130;-2.040;2023-05-16T04:07:43;17.10;58.30
61398;DHT22;47267;48.130;-2.040;2023-05-16T04:10:09;17.10;58.30
61398;DHT22;47267;48.130;-2.040;2023-05-16T04:12:35;17.00;58.20
61398;DHT22;47267;48.130;-2.040;2023-05-16T04:15:04;17.00;58.20
61398;DHT22;47267;48.130;-2.040;2023-05-16T04:17:31;17.10;58.90
61398;DHT22;47267;48.130;-2.040;2023-05-16T04:19:57;17.00;58.20
61398;DHT22;47267;48.130;-2.040;2023-05-16T04:22:22;17.00;58.20
61398;DHT22;47267;48.130;-2.040;2023-05-16T04:24:48;17.00;58.20
61398;DHT22;47267;48.130;-2.040;2023-05-16T04:27:14;17.00;58.20
61398;DHT22;47267;48.130;-2.040;2023-05-16T04:29:40;17.00;58.20
61398;DHT22;47267;48.130;-2.040;2023-05-16T04:32:06;17.00;58.20
61398;DHT22;47267;48.130;-2.040;2023-05-16T04:34:32;16.90;58.10
61398;DHT22;47267;48.130;-2.040;2023-05-16T04:37:02;16.90;58.20
61398;DHT22;47267;48.130;-2.040;2023-05-16T04:39:28;17.00;58.20
61398;DHT22;47267;48.130;-2.040;2023-05-16T04:41:54;16.90;58.20
61398;DHT22;47267;48.130;-2.040;2023-05-16T04:44:24;16.90;58.20
61398;DHT22;47267;48.130;-2.040;2023-05-16T04:46:49;16.90;58.10
61398;DHT22;47267;48.130;-2.040;2023-05-16T04:49:15;16.90;58.20
61398;DHT22;47267;48.130;-2.040;2023-05-16T04:51:41;16.90;58.20
61398;DHT22;47267;48.130;-2.040;2023-05-16T04:54:07;16.90;58.10
61398;DHT22;47267;48.130;-2.040;2023-05-16T04:56:33;16.90;58.20
61398;DHT22;47267;48.130;-2.040;2023-05-16T04:58:58;16.80;58.10
61398;DHT22;47267;48.130;-2.040;2023-05-16T05:01:24;16.90;58.20
61398;DHT22;47267;48.130;-2.040;2023-05-16T05:03:50;16.80;58.10
61398;DHT22;47267;48.130;-2.040;2023-05-16T05:06:16;16.80;58.00
61398;DHT22;47267;48.130;-2.040;2023-05-16T05:08:41;16.80;58.10
61398;DHT22;47267;48.130;-2.040;2023-05-16T05:11:07;16.80;58.10
61398;DHT22;47267;48.130;-2.040;2023-05-16T05:13:32;16.80;58.10
61398;DHT22;47267;48.130;-2.040;2023-05-16T05:15:58;16.80;58.10
61398;DHT22;47267;48.130;-2.040;2023-05-16T05:18:24;16.70;58.10
61398;DHT22;47267;48.130;-2.040;2023-05-16T05:20:51;16.80;58.20
61398;DHT22;47267;48.130;-2.040;2023-05-16T05:23:17;16.80;58.20
61398;DHT22;47267;48.130;-2.040;2023-05-16T05:25:42;16.70;58.10
61398;DHT22;47267;48.130;-2.040;2023-05-16T05:28:08;16.70;58.10
61398;DHT22;47267;48.130;-2.040;2023-05-16T05:30:34;16.70;58.20
61398;DHT22;47267;48.130;-2.040;2023-05-16T05:32:59;16.70;58.20
61398;DHT22;47267;48.130;-2.040;2023-05-16T05:35:25;16.70;58.30
61398;DHT22;47267;48.130;-2.040;2023-05-16T05:37:51;16.70;58.20
61398;DHT22;47267;48.130;-2.040;2023-05-16T05:40:17;16.70;58.20
61398;DHT22;47267;48.130;-2.040;2023-05-16T05:42:42;16.70;58.30
61398;DHT22;47267;48.130;-2.040;2023-05-16T05:45:08;16.70;58.30
61398;DHT22;47267;48.130;-2.040;2023-05-16T05:47:34;16.70;58.40
61398;DHT22;47267;48.130;-2.040;2023-05-16T05:49:59;16.60;58.40
61398;DHT22;47267;48.130;-2.040;2023-05-16T05:52:25;16.60;58.40
61398;DHT22;47267;48.130;-2.040;2023-05-16T05:54:53;16.60;58.40
61398;DHT22;47267;48.130;-2.040;2023-05-16T05:57:19;16.60;58.40
61398;DHT22;47267;48.130;-2.040;2023-05-16T05:59:45;16.60;58.50
61398;DHT22;47267;48.130;-2.040;2023-05-16T06:02:11;16.60;58.50
61398;DHT22;47267;48.130;-2.040;2023-05-16T06:04:37;16.60;58.50
61398;DHT22;47267;48.130;-2.040;2023-05-16T06:07:03;16.60;58.50
61398;DHT22;47267;48.130;-2.040;2023-05-16T06:09:29;16.60;58.60
61398;DHT22;47267;48.130;-2.040;2023-05-16T06:11:55;16.60;58.60
61398;DHT22;47267;48.130;-2.040;2023-05-16T06:14:21;16.60;58.60
61398;DHT22;47267;48.130;-2.040;2023-05-16T06:16:46;16.60;58.70
61398;DHT22;47267;48.130;-2.040;2023-05-16T06:19:12;16.60;58.70
61398;DHT22;47267;48.130;-2.040;2023-05-16T06:21:41;16.50;58.70
61398;DHT22;47267;48.130;-2.040;2023-05-16T06:24:07;16.50;58.70
61398;DHT22;47267;48.130;-2.040;2023-05-16T06:26:32;16.50;58.70
61398;DHT22;47267;48.130;-2.040;2023-05-16T06:28:58;16.50;58.70
61398;DHT22;47267;48.130;-2.040;2023-05-16T06:31:24;16.50;58.70
61398;DHT22;47267;48.130;-2.040;2023-05-16T06:33:50;16.50;58.80
61398;DHT22;47267;48.130;-2.040;2023-05-16T06:36:15;16.50;58.80
61398;DHT22;47267;48.130;-2.040;2023-05-16T06:38:41;16.50;58.80
61398;DHT22;47267;48.130;-2.040;2023-05-16T06:41:07;16.50;58.80
61398;DHT22;47267;48.130;-2.040;2023-05-16T06:43:33;16.50;58.90
61398;DHT22;47267;48.130;-2.040;2023-05-16T06:45:58;16.50;58.90
61398;DHT22;47267;48.130;-2.040;2023-05-16T06:48:24;16.50;58.90
61398;DHT22;47267;48.130;-2.040;2023-05-16T06:50:49;16.50;58.90
61398;DHT22;47267;48.130;-2.040;2023-05-16T06:53:16;16.50;58.90
61398;DHT22;47267;48.130;-2.040;2023-05-16T06:55:42;16.50;58.90
61398;DHT22;47267;48.130;-2.040;2023-05-16T06:58:09;16.50;59.00
61398;DHT22;47267;48.130;-2.040;2023-05-16T07:00:35;16.50;59.00
61398;DHT22;47267;48.130;-2.040;2023-05-16T07:03:01;16.50;59.00
61398;DHT22;47267;48.130;-2.040;2023-05-16T07:05:28;16.50;59.00
61398;DHT22;47267;48.130;-2.040;2023-05-16T07:07:54;16.60;59.10
61398;DHT22;47267;48.130;-2.040;2023-05-16T07:10:19;16.60;59.10
61398;DHT22;47267;48.130;-2.040;2023-05-16T07:12:45;16.60;59.10
61398;DHT22;47267;48.130;-2.040;2023-05-16T07:15:11;16.60;59.10
61398;DHT22;47267;48.130;-2.040;2023-05-16T07:17:37;16.60;59.10
61398;DHT22;47267;48.130;-2.040;2023-05-16T07:20:03;16.60;59.10
61398;DHT22;47267;48.130;-2.040;2023-05-16T07:22:29;16.60;59.10
61398;DHT22;47267;48.130;-2.040;2023-05-16T07:24:55;16.60;59.10
61398;DHT22;47267;48.130;-2.040;2023-05-16T07:27:25;16.60;59.20
61398;DHT22;47267;48.130;-2.040;2023-05-16T07:29:51;16.70;59.20
61398;DHT22;47267;48.130;-2.040;2023-05-16T07:32:17;16.60;59.20
61398;DHT22;47267;48.130;-2.040;2023-05-16T07:34:42;16.60;59.20
61398;DHT22;47267;48.130;-2.040;2023-05-16T07:37:08;16.70;59.30
61398;DHT22;47267;48.130;-2.040;2023-05-16T07:39:38;16.70;59.30
61398;DHT22;47267;48.130;-2.040;2023-05-16T07:42:05;16.60;59.20
61398;DHT22;47267;48.130;-2.040;2023-05-16T07:44:30;16.60;59.20
61398;DHT22;47267;48.130;-2.040;2023-05-16T07:46:56;16.70;59.30
61398;DHT22;47267;48.130;-2.040;2023-05-16T07:49:22;16.70;59.30
61398;DHT22;47267;48.130;-2.040;2023-05-16T07:51:47;16.70;59.30
61398;DHT22;47267;48.130;-2.040;2023-05-16T07:54:13;16.60;59.30
61398;DHT22;47267;48.130;-2.040;2023-05-16T07:56:39;16.70;59.30
61398;DHT22;47267;48.130;-2.040;2023-05-16T07:59:05;16.60;59.30
61398;DHT22;47267;48.130;-2.040;2023-05-16T08:01:30;16.70;59.30
61398;DHT22;47267;48.130;-2.040;2023-05-16T08:03:56;16.70;59.30
61398;DHT22;47267;48.130;-2.040;2023-05-16T08:06:22;16.70;59.90
61398;DHT22;47267;48.130;-2.040;2023-05-16T08:08:47;16.70;59.30
61398;DHT22;47267;48.130;-2.040;2023-05-16T08:11:13;16.70;59.30
61398;DHT22;47267;48.130;-2.040;2023-05-16T08:13:39;16.70;59.30
61398;DHT22;47267;48.130;-2.040;2023-05-16T08:16:04;16.60;59.30
61398;DHT22;47267;48.130;-2.040;2023-05-16T08:18:30;16.70;59.30
61398;DHT22;47267;48.130;-2.040;2023-05-16T08:20:56;16.70;59.30
61398;DHT22;47267;48.130;-2.040;2023-05-16T08:23:21;16.70;59.30
61398;DHT22;47267;48.130;-2.040;2023-05-16T08:25:47;16.70;59.30
61398;DHT22;47267;48.130;-2.040;2023-05-16T08:28:13;16.70;59.30
61398;DHT22;47267;48.130;-2.040;2023-05-16T08:30:39;16.70;59.30
61398;DHT22;47267;48.130;-2.040;2023-05-16T08:33:05;16.60;59.20
61398;DHT22;47267;48.130;-2.040;2023-05-16T08:35:31;16.70;59.20
61398;DHT22;47267;48.130;-2.040;2023-05-16T08:37:57;16.60;59.20
61398;DHT22;47267;48.130;-2.040;2023-05-16T08:40:25;16.60;59.20
61398;DHT22;47267;48.130;-2.040;2023-05-16T08:42:51;16.70;59.20
61398;DHT22;47267;48.130;-2.040;2023-05-16T08:45:18;16.60;59.10
61398;DHT22;47267;48.130;-2.040;2023-05-16T08:47:44;16.70;59.20
61398;DHT22;47267;48.130;-2.040;2023-05-16T08:50:13;16.70;59.20
61398;DHT22;47267;48.130;-2.040;2023-05-16T08:52:41;16.60;59.10
61398;DHT22;47267;48.130;-2.040;2023-05-16T08:55:09;16.60;59.10
61398;DHT22;47267;48.130;-2.040;2023-05-16T08:57:36;16.70;59.10
61398;DHT22;47267;48.130;-2.040;2023-05-16T09:00:02;16.60;59.10
61398;DHT22;47267;48.130;-2.040;2023-05-16T09:02:38;16.70;59.10
61398;DHT22;47267;48.130;-2.040;2023-05-16T09:05:04;16.70;59.10
61398;DHT22;47267;48.130;-2.040;2023-05-16T09:07:30;16.60;59.10
61398;DHT22;47267;48.130;-2.040;2023-05-16T09:09:56;16.60;59.10
61398;DHT22;47267;48.130;-2.040;2023-05-16T09:12:21;16.70;59.10
61398;DHT22;47267;48.130;-2.040;2023-05-16T09:14:47;16.60;59.00
61398;DHT22;47267;48.130;-2.040;2023-05-16T09:17:13;16.70;59.10
61398;DHT22;47267;48.130;-2.040;2023-05-16T09:19:41;16.60;59.10
61398;DHT22;47267;48.130;-2.040;2023-05-16T09:22:14;16.60;59.10
61398;DHT22;47267;48.130;-2.040;2023-05-16T09:24:44;16.60;59.00
61398;DHT22;47267;48.130;-2.040;2023-05-16T09:27:11;16.60;59.00
61398;DHT22;47267;48.130;-2.040;2023-05-16T09:29:41;16.60;59.00
61398;DHT22;47267;48.130;-2.040;2023-05-16T09:32:16;16.60;59.00
61398;DHT22;47267;48.130;-2.040;2023-05-16T09:34:46;16.60;59.00
61398;DHT22;47267;48.130;-2.040;2023-05-16T09:37:14;16.70;59.00
61398;DHT22;47267;48.130;-2.040;2023-05-16T09:39:47;16.60;59.00
61398;DHT22;47267;48.130;-2.040;2023-05-16T09:42:14;16.60;59.00
61398;DHT22;47267;48.130;-2.040;2023-05-16T09:44:44;16.60;59.00
61398;DHT22;47267;48.130;-2.040;2023-05-16T09:47:13;16.60;59.00
61398;DHT22;47267;48.130;-2.040;2023-05-16T09:49:40;16.60;59.00
61398;DHT22;47267;48.130;-2.040;2023-05-16T09:52:06;16.60;59.00
61398;DHT22;47267;48.130;-2.040;2023-05-16T09:54:32;16.60;59.00
61398;DHT22;47267;48.130;-2.040;2023-05-16T09:56:59;16.60;59.00
61398;DHT22;47267;48.130;-2.040;2023-05-16T09:59:27;16.60;59.00
61398;DHT22;47267;48.130;-2.040;2023-05-16T10:01:53;16.60;59.00
61398;DHT22;47267;48.130;-2.040;2023-05-16T10:04:21;16.60;59.00
61398;DHT22;47267;48.130;-2.040;2023-05-16T10:06:49;16.60;59.00
61398;DHT22;47267;48.130;-2.040;2023-05-16T10:09:16;16.60;58.90
61398;DHT22;47267;48.130;-2.040;2023-05-16T10:11:44;16.70;59.00
61398;DHT22;47267;48.130;-2.040;2023-05-16T10:14:11;16.60;58.90
61398;DHT22;47267;48.130;-2.040;2023-05-16T10:16:42;16.60;59.00
61398;DHT22;47267;48.130;-2.040;2023-05-16T10:19:07;16.70;59.00
61398;DHT22;47267;48.130;-2.040;2023-05-16T10:21:33;16.70;59.00
61398;DHT22;47267;48.130;-2.040;2023-05-16T10:24:03;16.70;59.00
61398;DHT22;47267;48.130;-2.040;2023-05-16T10:26:32;16.70;59.00
61398;DHT22;47267;48.130;-2.040;2023-05-16T10:28:59;16.70;59.00
61398;DHT22;47267;48.130;-2.040;2023-05-16T10:31:27;16.60;58.90
61398;DHT22;47267;48.130;-2.040;2023-05-16T10:33:55;16.70;58.90
61398;DHT22;47267;48.130;-2.040;2023-05-16T10:36:21;16.60;58.90
61398;DHT22;47267;48.130;-2.040;2023-05-16T10:38:48;16.60;58.90
61398;DHT22;47267;48.130;-2.040;2023-05-16T10:41:14;16.60;58.90
61398;DHT22;47267;48.130;-2.040;2023-05-16T10:43:44;16.70;58.90
61398;DHT22;47267;48.130;-2.040;2023-05-16T10:46:11;16.70;58.90
61398;DHT22;47267;48.130;-2.040;2023-05-16T10:48:40;16.70;58.90
61398;DHT22;47267;48.130;-2.040;2023-05-16T10:53:50;16.70;58.90
61398;DHT22;47267;48.130;-2.040;2023-05-16T10:56:22;16.70;58.90
61398;DHT22;47267;48.130;-2.040;2023-05-16T10:58:48;16.70;58.90
61398;DHT22;47267;48.130;-2.040;2023-05-16T11:01:23;16.70;58.90
61398;DHT22;47267;48.130;-2.040;2023-05-16T11:06:22;16.70;58.90
61398;DHT22;47267;48.130;-2.040;2023-05-16T11:11:42;16.70;58.90
61398;DHT22;47267;48.130;-2.040;2023-05-16T11:14:08;16.70;58.90
61398;DHT22;47267;48.130;-2.040;2023-05-16T11:16:35;16.70;58.90
61398;DHT22;47267;48.130;-2.040;2023-05-16T11:19:07;16.70;58.90
61398;DHT22;47267;48.130;-2.040;2023-05-16T11:24:57;16.70;58.80
61398;DHT22;47267;48.130;-2.040;2023-05-16T11:27:44;16.80;58.90
61398;DHT22;47267;48.130;-2.040;2023-05-16T11:30:12;16.80;58.90
61398;DHT22;47267;48.130;-2.040;2023-05-16T11:32:41;16.80;58.90
61398;DHT22;47267;48.130;-2.040;2023-05-16T11:35:10;16.80;58.90
61398;DHT22;47267;48.130;-2.040;2023-05-16T11:37:36;16.80;58.90
61398;DHT22;47267;48.130;-2.040;2023-05-16T11:40:04;16.80;58.90
61398;DHT22;47267;48.130;-2.040;2023-05-16T11:42:44;16.80;58.90
61398;DHT22;47267;48.130;-2.040;2023-05-16T11:45:13;16.80;58.90
61398;DHT22;47267;48.130;-2.040;2023-05-16T11:47:40;16.80;58.90
61398;DHT22;47267;48.130;-2.040;2023-05-16T11:50:10;16.80;58.90
61398;DHT22;47267;48.130;-2.040;2023-05-16T11:52:36;16.80;58.80
61398;DHT22;47267;48.130;-2.040;2023-05-16T11:55:04;16.80;58.80
61398;DHT22;47267;48.130;-2.040;2023-05-16T11:57:31;16.80;58.80
61398;DHT22;47267;48.130;-2.040;2023-05-16T12:00:04;16.80;58.80
61398;DHT22;47267;48.130;-2.040;2023-05-16T12:02:38;16.90;58.90
61398;DHT22;47267;48.130;-2.040;2023-05-16T12:05:10;16.80;58.80
61398;DHT22;47267;48.130;-2.040;2023-05-16T12:07:36;16.80;58.80
61398;DHT22;47267;48.130;-2.040;2023-05-16T12:10:09;16.90;58.90
61398;DHT22;47267;48.130;-2.040;2023-05-16T12:12:36;16.90;58.90
61398;DHT22;47267;48.130;-2.040;2023-05-16T12:15:03;16.90;58.80
61398;DHT22;47267;48.130;-2.040;2023-05-16T12:17:31;16.90;58.80
61398;DHT22;47267;48.130;-2.040;2023-05-16T12:19:57;16.90;58.80
61398;DHT22;47267;48.130;-2.040;2023-05-16T12:22:24;16.90;58.90
61398;DHT22;47267;48.130;-2.040;2023-05-16T12:24:50;16.90;58.80
61398;DHT22;47267;48.130;-2.040;2023-05-16T12:27:24;16.90;58.80
61398;DHT22;47267;48.130;-2.040;2023-05-16T12:29:51;16.90;58.80
61398;DHT22;47267;48.130;-2.040;2023-05-16T12:32:20;16.90;58.80
61398;DHT22;47267;48.130;-2.040;2023-05-16T12:34:52;16.90;58.80
61398;DHT22;47267;48.130;-2.040;2023-05-16T12:37:20;17.00;58.80
61398;DHT22;47267;48.130;-2.040;2023-05-16T12:39:46;17.00;58.80
61398;DHT22;47267;48.130;-2.040;2023-05-16T12:42:13;17.00;58.80
61398;DHT22;47267;48.130;-2.040;2023-05-16T12:44:39;17.00;58.80
61398;DHT22;47267;48.130;-2.040;2023-05-16T12:47:12;17.00;58.80
61398;DHT22;47267;48.130;-2.040;2023-05-16T12:49:47;17.00;58.80
61398;DHT22;47267;48.130;-2.040;2023-05-16T12:52:19;17.00;58.80
61398;DHT22;47267;48.130;-2.040;2023-05-16T12:54:46;17.00;58.80
61398;DHT22;47267;48.130;-2.040;2023-05-16T12:57:12;17.10;58.80
61398;DHT22;47267;48.130;-2.040;2023-05-16T12:59:38;17.10;58.80
61398;DHT22;47267;48.130;-2.040;2023-05-16T13:02:04;17.10;58.80
61398;DHT22;47267;48.130;-2.040;2023-05-16T13:04:30;17.10;58.80
61398;DHT22;47267;48.130;-2.040;2023-05-16T13:06:56;17.10;58.80
61398;DHT22;47267;48.130;-2.040;2023-05-16T13:09:22;17.10;58.80
61398;DHT22;47267;48.130;-2.040;2023-05-16T13:11:48;17.10;58.80
61398;DHT22;47267;48.130;-2.040;2023-05-16T13:14:15;17.10;58.80
61398;DHT22;47267;48.130;-2.040;2023-05-16T13:16:42;17.20;58.90
61398;DHT22;47267;48.130;-2.040;2023-05-16T13:19:08;17.20;58.80
61398;DHT22;47267;48.130;-2.040;2023-05-16T13:21:34;17.20;58.80
61398;DHT22;47267;48.130;-2.040;2023-05-16T13:23:59;17.10;58.80
61398;DHT22;47267;48.130;-2.040;2023-05-16T13:26:25;17.20;59.40
61398;DHT22;47267;48.130;-2.040;2023-05-16T13:28:52;17.20;58.80
61398;DHT22;47267;48.130;-2.040;2023-05-16T13:31:19;17.20;58.80
61398;DHT22;47267;48.130;-2.040;2023-05-16T13:33:45;17.20;58.80
61398;DHT22;47267;48.130;-2.040;2023-05-16T13:36:11;17.20;58.80
61398;DHT22;47267;48.130;-2.040;2023-05-16T13:38:37;17.20;58.80
61398;DHT22;47267;48.130;-2.040;2023-05-16T13:41:02;17.20;58.80
61398;DHT22;47267;48.130;-2.040;2023-05-16T13:43:28;17.30;58.80
61398;DHT22;47267;48.130;-2.040;2023-05-16T13:45:54;17.20;58.80
61398;DHT22;47267;48.130;-2.040;2023-05-16T13:48:20;17.30;58.80
61398;DHT22;47267;48.130;-2.040;2023-05-16T13:50:46;17.30;58.80
61398;DHT22;47267;48.130;-2.040;2023-05-16T13:53:12;17.30;58.80
61398;DHT22;47267;48.130;-2.040;2023-05-16T13:55:37;17.30;58.80
61398;DHT22;47267;48.130;-2.040;2023-05-16T13:58:03;17.30;58.80
61398;DHT22;47267;48.130;-2.040;2023-05-16T14:00:29;17.30;58.80
61398;DHT22;47267;48.130;-2.040;2023-05-16T14:02:55;17.40;58.80
61398;DHT22;47267;48.130;-2.040;2023-05-16T14:05:21;17.40;58.90
61398;DHT22;47267;48.130;-2.040;2023-05-16T14:07:46;17.40;58.80
61398;DHT22;47267;48.130;-2.040;2023-05-16T14:10:12;17.40;58.80
61398;DHT22;47267;48.130;-2.040;2023-05-16T14:12:38;17.40;58.80
61398;DHT22;47267;48.130;-2.040;2023-05-16T14:15:05;17.40;58.80
61398;DHT22;47267;48.130;-2.040;2023-05-16T14:17:31;17.40;58.80
61398;DHT22;47267;48.130;-2.040;2023-05-16T14:19:57;17.50;58.90
61398;DHT22;47267;48.130;-2.040;2023-05-16T14:22:23;17.50;58.90
61398;DHT22;47267;48.130;-2.040;2023-05-16T14:24:48;17.50;58.90
61398;DHT22;47267;48.130;-2.040;2023-05-16T14:27:14;17.50;58.90
61398;DHT22;47267;48.130;-2.040;2023-05-16T14:29:41;17.50;58.90
61398;DHT22;47267;48.130;-2.040;2023-05-16T14:32:08;17.50;58.90
61398;DHT22;47267;48.130;-2.040;2023-05-16T14:34:35;17.60;58.90
61398;DHT22;47267;48.130;-2.040;2023-05-16T14:37:01;17.60;58.90
61398;DHT22;47267;48.130;-2.040;2023-05-16T14:39:26;17.60;58.90
61398;DHT22;47267;48.130;-2.040;2023-05-16T14:41:52;17.60;58.90
61398;DHT22;47267;48.130;-2.040;2023-05-16T14:44:18;17.60;58.90
61398;DHT22;47267;48.130;-2.040;2023-05-16T14:46:46;17.70;58.90
61398;DHT22;47267;48.130;-2.040;2023-05-16T14:49:11;17.70;58.90
61398;DHT22;47267;48.130;-2.040;2023-05-16T14:51:37;17.70;58.90
61398;DHT22;47267;48.130;-2.040;2023-05-16T14:54:03;17.70;58.90
61398;DHT22;47267;48.130;-2.040;2023-05-16T14:56:30;17.70;58.90
61398;DHT22;47267;48.130;-2.040;2023-05-16T14:58:56;17.80;59.00
61398;DHT22;47267;48.130;-2.040;2023-05-16T15:01:22;17.80;59.00
61398;DHT22;47267;48.130;-2.040;2023-05-16T15:03:47;17.80;59.00
61398;DHT22;47267;48.130;-2.040;2023-05-16T15:06:13;17.80;58.90
61398;DHT22;47267;48.130;-2.040;2023-05-16T15:08:39;17.80;59.00
61398;DHT22;47267;48.130;-2.040;2023-05-16T15:11:04;17.80;59.00
61398;DHT22;47267;48.130;-2.040;2023-05-16T15:13:30;17.90;59.00
61398;DHT22;47267;48.130;-2.040;2023-05-16T15:15:56;17.90;59.00
61398;DHT22;47267;48.130;-2.040;2023-05-16T15:18:22;17.90;59.00
61398;DHT22;47267;48.130;-2.040;2023-05-16T15:20:48;17.90;59.00
61398;DHT22;47267;48.130;-2.040;2023-05-16T15:23:16;18.00;59.00
61398;DHT22;47267;48.130;-2.040;2023-05-16T15:25:42;18.00;59.00
61398;DHT22;47267;48.130;-2.040;2023-05-16T15:28:07;18.00;59.00
61398;DHT22;47267;48.130;-2.040;2023-05-16T15:30:33;18.00;59.00
61398;DHT22;47267;48.130;-2.040;2023-05-16T15:32:59;18.00;59.00
61398;DHT22;47267;48.130;-2.040;2023-05-16T15:35:24;18.10;59.00